sensor_id;sensor_type;location;lat;lon;timestamp;P1;durP1;ratioP1;P2;durP2;ratioP2
49392;SDS011;35268;42.642;23.308;2022-10-23T00:01:22;28.17;;;13.15;;
49392;SDS011;35268;42.642;23.308;2022-10-23T00:03:51;24.05;;;11.60;;
49392;SDS011;35268;42.642;23.308;2022-10-23T00:06:18;34.15;;;13.88;;
49392;SDS011;35268;42.642;23.308;2022-10-23T00:08:45;20.55;;;11.35;;
49392;SDS011;35268;42.642;23.308;2022-10-23T00:11:11;28.05;;;12.23;;
49392;SDS011;35268;42.642;23.308;2022-10-23T00:13:39;23.58;;;11.38;;
49392;SDS011;35268;42.642;23.308;2022-10-23T00:16:05;28.30;;;11.63;;
49392;SDS011;35268;42.642;23.308;2022-10-23T00:18:31;22.20;;;12.10;;
49392;SDS011;35268;42.642;23.308;2022-10-23T00:20:56;27.48;;;11.77;;
49392;SDS011;35268;42.642;23.308;2022-10-23T00:23:22;20.88;;;12.10;;
49392;SDS011;35268;42.642;23.308;2022-10-23T00:25:48;19.65;;;10.68;;
49392;SDS011;35268;42.642;23.308;2022-10-23T00:28:14;19.00;;;10.95;;
49392;SDS011;35268;42.642;23.308;2022-10-23T00:30:39;15.90;;;10.00;;
49392;SDS011;35268;42.642;23.308;2022-10-23T00:33:05;23.17;;;10.55;;
49392;SDS011;35268;42.642;23.308;2022-10-23T00:35:30;26.15;;;9.10;;
49392;SDS011;35268;42.642;23.308;2022-10-23T00:37:56;19.27;;;9.82;;
49392;SDS011;35268;42.642;23.308;2022-10-23T00:40:21;19.30;;;10.23;;
49392;SDS011;35268;42.642;23.308;2022-10-23T00:42:47;21.58;;;10.75;;
49392;SDS011;35268;42.642;23.308;2022-10-23T00:47:40;22.00;;;10.23;;
49392;SDS011;35268;42.642;23.308;2022-10-23T00:50:06;26.75;;;10.18;;
49392;SDS011;35268;42.642;23.308;2022-10-23T00:52:32;22.35;;;11.43;;
49392;SDS011;35268;42.642;23.308;2022-10-23T00:55:01;28.23;;;9.95;;
49392;SDS011;35268;42.642;23.308;2022-10-23T00:57:29;20.25;;;9.95;;
49392;SDS011;35268;42.642;23.308;2022-10-23T00:59:55;26.00;;;8.50;;
49392;SDS011;35268;42.642;23.308;2022-10-23T01:02:21;21.63;;;7.55;;
49392;SDS011;35268;42.642;23.308;2022-10-23T01:04:46;20.17;;;8.43;;
49392;SDS011;35268;42.642;23.308;2022-10-23T01:10:15;14.63;;;7.53;;
49392;SDS011;35268;42.642;23.308;2022-10-23T01:15:36;21.10;;;8.52;;
49392;SDS011;35268;42.642;23.308;2022-10-23T01:20:45;15.38;;;7.40;;
49392;SDS011;35268;42.642;23.308;2022-10-23T01:25:57;30.17;;;10.82;;
49392;SDS011;35268;42.642;23.308;2022-10-23T01:31:26;32.30;;;15.07;;
49392;SDS011;35268;42.642;23.308;2022-10-23T01:33:59;31.98;;;16.35;;
49392;SDS011;35268;42.642;23.308;2022-10-23T01:36:32;35.80;;;17.95;;
49392;SDS011;35268;42.642;23.308;2022-10-23T01:39:04;34.88;;;19.60;;
49392;SDS011;35268;42.642;23.308;2022-10-23T01:41:35;42.40;;;18.50;;
49392;SDS011;35268;42.642;23.308;2022-10-23T01:44:27;36.75;;;17.83;;
49392;SDS011;35268;42.642;23.308;2022-10-23T01:49:26;33.88;;;18.00;;
49392;SDS011;35268;42.642;23.308;2022-10-23T01:51:54;36.65;;;17.10;;
49392;SDS011;35268;42.642;23.308;2022-10-23T01:54:24;31.77;;;16.83;;
49392;SDS011;35268;42.642;23.308;2022-10-23T01:56:53;36.40;;;18.80;;
49392;SDS011;35268;42.642;23.308;2022-10-23T01:59:22;40.97;;;16.13;;
49392;SDS011;35268;42.642;23.308;2022-10-23T02:01:51;35.50;;;17.30;;
49392;SDS011;35268;42.642;23.308;2022-10-23T02:04:22;30.38;;;16.15;;
49392;SDS011;35268;42.642;23.308;2022-10-23T02:06:51;32.10;;;14.02;;
49392;SDS011;35268;42.642;23.308;2022-10-23T02:09:17;27.20;;;14.82;;
49392;SDS011;35268;42.642;23.308;2022-10-23T02:11:45;24.90;;;14.68;;
49392;SDS011;35268;42.642;23.308;2022-10-23T02:14:24;29.23;;;14.18;;
49392;SDS011;35268;42.642;23.308;2022-10-23T02:17:09;31.10;;;14.77;;
49392;SDS011;35268;42.642;23.308;2022-10-23T02:22:17;26.47;;;15.73;;
49392;SDS011;35268;42.642;23.308;2022-10-23T02:24:52;27.40;;;14.07;;
49392;SDS011;35268;42.642;23.308;2022-10-23T02:27:39;35.92;;;14.30;;
49392;SDS011;35268;42.642;23.308;2022-10-23T02:30:10;32.08;;;13.38;;
49392;SDS011;35268;42.642;23.308;2022-10-23T02:32:39;20.50;;;13.27;;
49392;SDS011;35268;42.642;23.308;2022-10-23T02:35:08;21.90;;;11.88;;
49392;SDS011;35268;42.642;23.308;2022-10-23T02:37:35;24.38;;;12.57;;
49392;SDS011;35268;42.642;23.308;2022-10-23T02:40:00;28.35;;;12.45;;
49392;SDS011;35268;42.642;23.308;2022-10-23T02:45:47;28.92;;;12.48;;
49392;SDS011;35268;42.642;23.308;2022-10-23T02:48:17;31.90;;;12.23;;
49392;SDS011;35268;42.642;23.308;2022-10-23T02:50:53;23.33;;;10.55;;
49392;SDS011;35268;42.642;23.308;2022-10-23T02:53:42;29.48;;;11.52;;
49392;SDS011;35268;42.642;23.308;2022-10-23T02:56:22;24.10;;;10.57;;
49392;SDS011;35268;42.642;23.308;2022-10-23T03:01:50;20.10;;;9.60;;
49392;SDS011;35268;42.642;23.308;2022-10-23T03:04:20;24.23;;;10.18;;
49392;SDS011;35268;42.642;23.308;2022-10-23T03:06:50;24.63;;;9.73;;
49392;SDS011;35268;42.642;23.308;2022-10-23T03:09:15;23.48;;;8.00;;
49392;SDS011;35268;42.642;23.308;2022-10-23T03:11:42;25.48;;;7.72;;
49392;SDS011;35268;42.642;23.308;2022-10-23T03:14:07;38.80;;;10.55;;
49392;SDS011;35268;42.642;23.308;2022-10-23T03:16:34;21.05;;;7.78;;
49392;SDS011;35268;42.642;23.308;2022-10-23T03:18:59;20.40;;;7.55;;
49392;SDS011;35268;42.642;23.308;2022-10-23T03:21:25;24.92;;;9.55;;
49392;SDS011;35268;42.642;23.308;2022-10-23T03:23:50;15.40;;;8.02;;
49392;SDS011;35268;42.642;23.308;2022-10-23T03:26:15;21.90;;;8.82;;
49392;SDS011;35268;42.642;23.308;2022-10-23T03:28:41;23.70;;;8.20;;
49392;SDS011;35268;42.642;23.308;2022-10-23T03:31:06;20.35;;;8.13;;
49392;SDS011;35268;42.642;23.308;2022-10-23T03:33:32;20.98;;;8.27;;
49392;SDS011;35268;42.642;23.308;2022-10-23T03:35:57;17.65;;;8.65;;
49392;SDS011;35268;42.642;23.308;2022-10-23T03:38:23;22.00;;;8.85;;
49392;SDS011;35268;42.642;23.308;2022-10-23T03:40:48;24.95;;;8.93;;
49392;SDS011;35268;42.642;23.308;2022-10-23T03:43:13;20.75;;;8.27;;
49392;SDS011;35268;42.642;23.308;2022-10-23T03:45:39;20.67;;;9.15;;
49392;SDS011;35268;42.642;23.308;2022-10-23T03:48:05;16.80;;;8.10;;
49392;SDS011;35268;42.642;23.308;2022-10-23T03:50:31;17.83;;;7.60;;
49392;SDS011;35268;42.642;23.308;2022-10-23T03:52:57;14.30;;;6.75;;
49392;SDS011;35268;42.642;23.308;2022-10-23T03:55:23;17.42;;;6.40;;
49392;SDS011;35268;42.642;23.308;2022-10-23T03:57:51;18.33;;;7.03;;
49392;SDS011;35268;42.642;23.308;2022-10-23T04:00:17;15.77;;;7.30;;
49392;SDS011;35268;42.642;23.308;2022-10-23T04:02:43;16.17;;;5.72;;
49392;SDS011;35268;42.642;23.308;2022-10-23T04:05:08;14.88;;;6.47;;
49392;SDS011;35268;42.642;23.308;2022-10-23T04:07:34;16.45;;;6.13;;
49392;SDS011;35268;42.642;23.308;2022-10-23T04:10:00;15.60;;;5.38;;
49392;SDS011;35268;42.642;23.308;2022-10-23T04:12:25;11.82;;;4.93;;
49392;SDS011;35268;42.642;23.308;2022-10-23T04:14:51;11.32;;;4.32;;
49392;SDS011;35268;42.642;23.308;2022-10-23T04:17:16;12.20;;;4.10;;
49392;SDS011;35268;42.642;23.308;2022-10-23T04:19:42;9.38;;;4.00;;
49392;SDS011;35268;42.642;23.308;2022-10-23T04:22:07;10.00;;;4.15;;
49392;SDS011;35268;42.642;23.308;2022-10-23T04:24:32;16.55;;;4.35;;
49392;SDS011;35268;42.642;23.308;2022-10-23T04:26:58;10.52;;;4.10;;
49392;SDS011;35268;42.642;23.308;2022-10-23T04:29:23;9.25;;;4.20;;
49392;SDS011;35268;42.642;23.308;2022-10-23T04:31:49;13.10;;;4.20;;
49392;SDS011;35268;42.642;23.308;2022-10-23T04:34:16;10.68;;;4.20;;
49392;SDS011;35268;42.642;23.308;2022-10-23T04:36:42;10.07;;;3.75;;
49392;SDS011;35268;42.642;23.308;2022-10-23T04:39:08;11.52;;;4.00;;
49392;SDS011;35268;42.642;23.308;2022-10-23T04:41:34;11.77;;;4.93;;
49392;SDS011;35268;42.642;23.308;2022-10-23T04:43:59;10.98;;;4.88;;
49392;SDS011;35268;42.642;23.308;2022-10-23T04:46:25;15.77;;;3.92;;
49392;SDS011;35268;42.642;23.308;2022-10-23T04:48:50;15.18;;;3.90;;
49392;SDS011;35268;42.642;23.308;2022-10-23T04:51:16;7.60;;;4.35;;
49392;SDS011;35268;42.642;23.308;2022-10-23T04:53:41;36.03;;;5.65;;
49392;SDS011;35268;42.642;23.308;2022-10-23T04:56:09;17.52;;;5.57;;
49392;SDS011;35268;42.642;23.308;2022-10-23T04:58:37;11.35;;;4.10;;
49392;SDS011;35268;42.642;23.308;2022-10-23T05:01:02;18.27;;;4.85;;
49392;SDS011;35268;42.642;23.308;2022-10-23T05:03:28;12.63;;;4.07;;
49392;SDS011;35268;42.642;23.308;2022-10-23T05:05:54;12.07;;;4.88;;
49392;SDS011;35268;42.642;23.308;2022-10-23T05:08:20;20.48;;;5.13;;
49392;SDS011;35268;42.642;23.308;2022-10-23T05:10:47;12.30;;;3.70;;
49392;SDS011;35268;42.642;23.308;2022-10-23T05:13:14;18.63;;;4.30;;
49392;SDS011;35268;42.642;23.308;2022-10-23T05:15:41;13.75;;;4.07;;
49392;SDS011;35268;42.642;23.308;2022-10-23T05:18:28;13.23;;;4.55;;
49392;SDS011;35268;42.642;23.308;2022-10-23T05:21:17;12.32;;;4.93;;
49392;SDS011;35268;42.642;23.308;2022-10-23T05:23:49;13.15;;;5.10;;
49392;SDS011;35268;42.642;23.308;2022-10-23T05:26:15;17.40;;;4.22;;
49392;SDS011;35268;42.642;23.308;2022-10-23T05:28:41;16.23;;;5.07;;
49392;SDS011;35268;42.642;23.308;2022-10-23T05:31:06;10.35;;;4.65;;
49392;SDS011;35268;42.642;23.308;2022-10-23T05:33:32;13.95;;;4.70;;
49392;SDS011;35268;42.642;23.308;2022-10-23T05:35:58;9.65;;;4.68;;
49392;SDS011;35268;42.642;23.308;2022-10-23T05:38:25;15.85;;;5.38;;
49392;SDS011;35268;42.642;23.308;2022-10-23T05:40:52;16.88;;;5.40;;
49392;SDS011;35268;42.642;23.308;2022-10-23T05:43:18;15.25;;;5.75;;
49392;SDS011;35268;42.642;23.308;2022-10-23T05:45:43;10.25;;;5.28;;
49392;SDS011;35268;42.642;23.308;2022-10-23T05:48:09;20.92;;;5.65;;
49392;SDS011;35268;42.642;23.308;2022-10-23T05:50:38;12.30;;;5.35;;
49392;SDS011;35268;42.642;23.308;2022-10-23T05:53:03;16.15;;;4.80;;
49392;SDS011;35268;42.642;23.308;2022-10-23T05:55:28;11.93;;;4.82;;
49392;SDS011;35268;42.642;23.308;2022-10-23T05:57:54;17.92;;;4.90;;
49392;SDS011;35268;42.642;23.308;2022-10-23T06:00:19;13.07;;;5.07;;
49392;SDS011;35268;42.642;23.308;2022-10-23T06:02:45;8.93;;;4.68;;
49392;SDS011;35268;42.642;23.308;2022-10-23T06:05:10;11.18;;;4.25;;
49392;SDS011;35268;42.642;23.308;2022-10-23T06:07:35;13.23;;;4.30;;
49392;SDS011;35268;42.642;23.308;2022-10-23T06:10:02;10.82;;;4.03;;
49392;SDS011;35268;42.642;23.308;2022-10-23T06:12:28;14.77;;;5.88;;
49392;SDS011;35268;42.642;23.308;2022-10-23T06:14:53;14.40;;;5.15;;
49392;SDS011;35268;42.642;23.308;2022-10-23T06:17:19;14.90;;;4.45;;
49392;SDS011;35268;42.642;23.308;2022-10-23T06:19:44;13.20;;;4.13;;
49392;SDS011;35268;42.642;23.308;2022-10-23T06:22:10;7.22;;;4.05;;
49392;SDS011;35268;42.642;23.308;2022-10-23T06:24:35;9.02;;;3.90;;
49392;SDS011;35268;42.642;23.308;2022-10-23T06:27:01;9.85;;;4.32;;
49392;SDS011;35268;42.642;23.308;2022-10-23T06:29:26;11.43;;;3.83;;
49392;SDS011;35268;42.642;23.308;2022-10-23T06:31:52;10.43;;;4.45;;
49392;SDS011;35268;42.642;23.308;2022-10-23T06:34:17;11.80;;;3.67;;
49392;SDS011;35268;42.642;23.308;2022-10-23T06:36:42;10.00;;;4.35;;
49392;SDS011;35268;42.642;23.308;2022-10-23T06:39:08;11.25;;;4.20;;
49392;SDS011;35268;42.642;23.308;2022-10-23T06:41:34;9.85;;;3.78;;
49392;SDS011;35268;42.642;23.308;2022-10-23T06:43:59;8.07;;;3.58;;
49392;SDS011;35268;42.642;23.308;2022-10-23T06:46:25;21.65;;;4.90;;
49392;SDS011;35268;42.642;23.308;2022-10-23T06:48:53;21.27;;;4.90;;
49392;SDS011;35268;42.642;23.308;2022-10-23T06:51:19;8.55;;;4.20;;
49392;SDS011;35268;42.642;23.308;2022-10-23T06:53:46;14.32;;;4.93;;
49392;SDS011;35268;42.642;23.308;2022-10-23T06:56:12;8.77;;;5.07;;
49392;SDS011;35268;42.642;23.308;2022-10-23T06:58:38;11.55;;;4.05;;
49392;SDS011;35268;42.642;23.308;2022-10-23T07:01:05;15.27;;;4.20;;
49392;SDS011;35268;42.642;23.308;2022-10-23T07:03:33;14.57;;;5.55;;
49392;SDS011;35268;42.642;23.308;2022-10-23T07:05:59;11.13;;;4.47;;
49392;SDS011;35268;42.642;23.308;2022-10-23T07:08:26;10.88;;;4.28;;
49392;SDS011;35268;42.642;23.308;2022-10-23T07:10:52;10.05;;;3.78;;
49392;SDS011;35268;42.642;23.308;2022-10-23T07:13:17;11.57;;;3.97;;
49392;SDS011;35268;42.642;23.308;2022-10-23T07:15:43;12.55;;;4.90;;
49392;SDS011;35268;42.642;23.308;2022-10-23T07:18:08;9.40;;;4.63;;
49392;SDS011;35268;42.642;23.308;2022-10-23T07:20:40;16.17;;;4.93;;
49392;SDS011;35268;42.642;23.308;2022-10-23T07:23:05;12.20;;;4.20;;
49392;SDS011;35268;42.642;23.308;2022-10-23T07:25:31;13.65;;;4.80;;
49392;SDS011;35268;42.642;23.308;2022-10-23T07:27:57;7.20;;;2.80;;
49392;SDS011;35268;42.642;23.308;2022-10-23T07:30:23;9.10;;;3.35;;
49392;SDS011;35268;42.642;23.308;2022-10-23T07:32:48;9.30;;;3.75;;
49392;SDS011;35268;42.642;23.308;2022-10-23T07:35:14;8.02;;;3.25;;
49392;SDS011;35268;42.642;23.308;2022-10-23T07:37:40;5.35;;;3.30;;
49392;SDS011;35268;42.642;23.308;2022-10-23T07:40:05;6.68;;;3.50;;
49392;SDS011;35268;42.642;23.308;2022-10-23T07:42:32;7.90;;;2.90;;
49392;SDS011;35268;42.642;23.308;2022-10-23T07:44:57;6.47;;;3.10;;
49392;SDS011;35268;42.642;23.308;2022-10-23T07:47:23;10.60;;;3.47;;
49392;SDS011;35268;42.642;23.308;2022-10-23T07:49:48;9.77;;;3.53;;
49392;SDS011;35268;42.642;23.308;2022-10-23T07:52:14;8.30;;;3.45;;
49392;SDS011;35268;42.642;23.308;2022-10-23T07:54:39;6.10;;;2.95;;
49392;SDS011;35268;42.642;23.308;2022-10-23T07:57:05;7.80;;;3.22;;
49392;SDS011;35268;42.642;23.308;2022-10-23T07:59:32;9.80;;;3.22;;
49392;SDS011;35268;42.642;23.308;2022-10-23T08:01:58;12.32;;;3.30;;
49392;SDS011;35268;42.642;23.308;2022-10-23T08:04:24;7.40;;;2.90;;
49392;SDS011;35268;42.642;23.308;2022-10-23T08:06:50;10.27;;;3.38;;
49392;SDS011;35268;42.642;23.308;2022-10-23T08:09:15;19.63;;;3.55;;
49392;SDS011;35268;42.642;23.308;2022-10-23T08:11:41;11.20;;;3.25;;
49392;SDS011;35268;42.642;23.308;2022-10-23T08:14:07;7.80;;;2.83;;
49392;SDS011;35268;42.642;23.308;2022-10-23T08:16:34;10.10;;;3.70;;
49392;SDS011;35268;42.642;23.308;2022-10-23T08:19:02;8.38;;;2.97;;
49392;SDS011;35268;42.642;23.308;2022-10-23T08:21:29;6.20;;;3.13;;
49392;SDS011;35268;42.642;23.308;2022-10-23T08:23:56;8.98;;;3.33;;
49392;SDS011;35268;42.642;23.308;2022-10-23T08:26:23;7.35;;;3.10;;
49392;SDS011;35268;42.642;23.308;2022-10-23T08:28:50;9.65;;;2.60;;
49392;SDS011;35268;42.642;23.308;2022-10-23T08:31:17;7.45;;;3.50;;
49392;SDS011;35268;42.642;23.308;2022-10-23T08:33:44;6.50;;;3.40;;
49392;SDS011;35268;42.642;23.308;2022-10-23T08:38:48;11.77;;;3.88;;
49392;SDS011;35268;42.642;23.308;2022-10-23T08:44:01;5.57;;;2.53;;
49392;SDS011;35268;42.642;23.308;2022-10-23T08:46:40;6.70;;;3.35;;
49392;SDS011;35268;42.642;23.308;2022-10-23T08:52:04;16.30;;;3.97;;
49392;SDS011;35268;42.642;23.308;2022-10-23T08:55:37;4.20;;;2.83;;
49392;SDS011;35268;42.642;23.308;2022-10-23T09:00:25;20.05;;;3.72;;
49392;SDS011;35268;42.642;23.308;2022-10-23T09:02:52;8.05;;;2.53;;
49392;SDS011;35268;42.642;23.308;2022-10-23T09:05:20;6.45;;;3.63;;
49392;SDS011;35268;42.642;23.308;2022-10-23T09:12:45;6.75;;;2.88;;
49392;SDS011;35268;42.642;23.308;2022-10-23T09:15:28;7.20;;;2.40;;
49392;SDS011;35268;42.642;23.308;2022-10-23T09:18:10;4.68;;;2.22;;
49392;SDS011;35268;42.642;23.308;2022-10-23T09:20:38;5.82;;;2.65;;
49392;SDS011;35268;42.642;23.308;2022-10-23T09:23:13;4.70;;;2.38;;
49392;SDS011;35268;42.642;23.308;2022-10-23T09:25:41;5.75;;;2.22;;
49392;SDS011;35268;42.642;23.308;2022-10-23T09:28:21;6.80;;;2.95;;
49392;SDS011;35268;42.642;23.308;2022-10-23T09:30:48;6.95;;;2.30;;
49392;SDS011;35268;42.642;23.308;2022-10-23T09:33:18;8.10;;;2.40;;
49392;SDS011;35268;42.642;23.308;2022-10-23T09:35:51;5.00;;;2.50;;
49392;SDS011;35268;42.642;23.308;2022-10-23T09:38:25;9.88;;;2.53;;
49392;SDS011;35268;42.642;23.308;2022-10-23T09:40:54;6.47;;;2.38;;
49392;SDS011;35268;42.642;23.308;2022-10-23T09:43:20;7.40;;;2.67;;
49392;SDS011;35268;42.642;23.308;2022-10-23T09:45:55;7.60;;;2.33;;
49392;SDS011;35268;42.642;23.308;2022-10-23T09:48:24;8.13;;;2.25;;
49392;SDS011;35268;42.642;23.308;2022-10-23T09:50:50;4.75;;;2.40;;
49392;SDS011;35268;42.642;23.308;2022-10-23T09:53:17;5.97;;;2.50;;
49392;SDS011;35268;42.642;23.308;2022-10-23T09:56:11;3.75;;;2.15;;
49392;SDS011;35268;42.642;23.308;2022-10-23T09:58:56;5.32;;;2.22;;
49392;SDS011;35268;42.642;23.308;2022-10-23T10:02:15;4.80;;;2.13;;
49392;SDS011;35268;42.642;23.308;2022-10-23T10:04:16;6.00;;;1.98;;
49392;SDS011;35268;42.642;23.308;2022-10-23T10:06:42;7.53;;;2.63;;
49392;SDS011;35268;42.642;23.308;2022-10-23T10:09:12;4.38;;;2.53;;
49392;SDS011;35268;42.642;23.308;2022-10-23T10:11:42;3.70;;;2.00;;
49392;SDS011;35268;42.642;23.308;2022-10-23T10:22:02;3.08;;;1.50;;
49392;SDS011;35268;42.642;23.308;2022-10-23T10:25:15;5.20;;;2.00;;
49392;SDS011;35268;42.642;23.308;2022-10-23T10:30:42;5.07;;;1.80;;
49392;SDS011;35268;42.642;23.308;2022-10-23T10:33:21;3.72;;;2.20;;
49392;SDS011;35268;42.642;23.308;2022-10-23T10:38:48;7.78;;;1.73;;
49392;SDS011;35268;42.642;23.308;2022-10-23T10:49:33;2.28;;;1.42;;
49392;SDS011;35268;42.642;23.308;2022-10-23T10:57:56;2.65;;;1.38;;
49392;SDS011;35268;42.642;23.308;2022-10-23T11:00:42;2.83;;;1.58;;
49392;SDS011;35268;42.642;23.308;2022-10-23T11:06:11;3.42;;;1.50;;
49392;SDS011;35268;42.642;23.308;2022-10-23T11:08:45;5.78;;;2.17;;
49392;SDS011;35268;42.642;23.308;2022-10-23T11:11:23;7.10;;;1.67;;
49392;SDS011;35268;42.642;23.308;2022-10-23T11:14:16;6.10;;;1.63;;
49392;SDS011;35268;42.642;23.308;2022-10-23T11:16:50;3.25;;;1.48;;
49392;SDS011;35268;42.642;23.308;2022-10-23T11:30:18;3.57;;;1.53;;
49392;SDS011;35268;42.642;23.308;2022-10-23T11:40:41;6.22;;;2.42;;
49392;SDS011;35268;42.642;23.308;2022-10-23T11:43:52;3.75;;;1.58;;
49392;SDS011;35268;42.642;23.308;2022-10-23T11:48:49;2.72;;;1.52;;
49392;SDS011;35268;42.642;23.308;2022-10-23T11:51:34;6.53;;;1.80;;
49392;SDS011;35268;42.642;23.308;2022-10-23T11:56:52;6.47;;;1.98;;
49392;SDS011;35268;42.642;23.308;2022-10-23T11:59:29;5.93;;;1.80;;
49392;SDS011;35268;42.642;23.308;2022-10-23T12:05:07;4.30;;;2.05;;
49392;SDS011;35268;42.642;23.308;2022-10-23T12:07:52;25.83;;;4.10;;
49392;SDS011;35268;42.642;23.308;2022-10-23T12:10:29;7.97;;;1.80;;
49392;SDS011;35268;42.642;23.308;2022-10-23T12:13:03;6.78;;;1.80;;
49392;SDS011;35268;42.642;23.308;2022-10-23T12:15:31;4.10;;;1.50;;
49392;SDS011;35268;42.642;23.308;2022-10-23T12:20:55;4.13;;;1.92;;
49392;SDS011;35268;42.642;23.308;2022-10-23T12:39:38;2.65;;;1.73;;
49392;SDS011;35268;42.642;23.308;2022-10-23T12:42:25;5.10;;;2.30;;
49392;SDS011;35268;42.642;23.308;2022-10-23T12:45:01;5.25;;;1.75;;
49392;SDS011;35268;42.642;23.308;2022-10-23T12:47:36;3.03;;;1.52;;
49392;SDS011;35268;42.642;23.308;2022-10-23T12:50:13;3.35;;;1.58;;
49392;SDS011;35268;42.642;23.308;2022-10-23T12:52:40;4.53;;;2.53;;
49392;SDS011;35268;42.642;23.308;2022-10-23T12:55:15;7.43;;;2.08;;
49392;SDS011;35268;42.642;23.308;2022-10-23T12:57:41;4.72;;;1.70;;
49392;SDS011;35268;42.642;23.308;2022-10-23T13:00:08;5.10;;;1.92;;
49392;SDS011;35268;42.642;23.308;2022-10-23T13:02:35;9.75;;;1.67;;
49392;SDS011;35268;42.642;23.308;2022-10-23T13:05:02;9.23;;;3.17;;
49392;SDS011;35268;42.642;23.308;2022-10-23T13:07:32;2.95;;;1.50;;
49392;SDS011;35268;42.642;23.308;2022-10-23T13:10:02;13.27;;;1.80;;
49392;SDS011;35268;42.642;23.308;2022-10-23T13:12:34;4.05;;;1.48;;
49392;SDS011;35268;42.642;23.308;2022-10-23T13:22:43;4.57;;;1.67;;
49392;SDS011;35268;42.642;23.308;2022-10-23T13:25:23;5.53;;;1.50;;
49392;SDS011;35268;42.642;23.308;2022-10-23T13:30:37;5.90;;;1.70;;
49392;SDS011;35268;42.642;23.308;2022-10-23T13:33:40;2.13;;;1.23;;
49392;SDS011;35268;42.642;23.308;2022-10-23T13:36:03;2.55;;;1.40;;
49392;SDS011;35268;42.642;23.308;2022-10-23T13:41:22;3.23;;;1.33;;
49392;SDS011;35268;42.642;23.308;2022-10-23T13:43:48;6.35;;;2.25;;
49392;SDS011;35268;42.642;23.308;2022-10-23T13:46:17;6.32;;;1.30;;
49392;SDS011;35268;42.642;23.308;2022-10-23T13:48:48;3.05;;;2.05;;
49392;SDS011;35268;42.642;23.308;2022-10-23T13:53:42;4.28;;;1.80;;
49392;SDS011;35268;42.642;23.308;2022-10-23T13:56:08;8.65;;;1.70;;
49392;SDS011;35268;42.642;23.308;2022-10-23T13:58:36;3.85;;;1.50;;
49392;SDS011;35268;42.642;23.308;2022-10-23T14:01:02;8.15;;;1.60;;
49392;SDS011;35268;42.642;23.308;2022-10-23T14:03:27;4.72;;;1.50;;
49392;SDS011;35268;42.642;23.308;2022-10-23T14:05:53;3.75;;;1.48;;
49392;SDS011;35268;42.642;23.308;2022-10-23T14:08:18;5.30;;;1.65;;
49392;SDS011;35268;42.642;23.308;2022-10-23T14:10:47;3.90;;;1.75;;
49392;SDS011;35268;42.642;23.308;2022-10-23T14:13:12;6.85;;;1.77;;
49392;SDS011;35268;42.642;23.308;2022-10-23T14:15:38;6.00;;;1.92;;
49392;SDS011;35268;42.642;23.308;2022-10-23T14:18:04;4.85;;;2.00;;
49392;SDS011;35268;42.642;23.308;2022-10-23T14:20:29;3.65;;;1.95;;
49392;SDS011;35268;42.642;23.308;2022-10-23T14:22:55;5.55;;;1.90;;
49392;SDS011;35268;42.642;23.308;2022-10-23T14:25:21;2.90;;;1.85;;
49392;SDS011;35268;42.642;23.308;2022-10-23T14:27:46;5.05;;;1.80;;
49392;SDS011;35268;42.642;23.308;2022-10-23T14:30:12;4.18;;;1.75;;
49392;SDS011;35268;42.642;23.308;2022-10-23T14:32:37;3.17;;;1.63;;
49392;SDS011;35268;42.642;23.308;2022-10-23T14:35:03;7.35;;;1.60;;
49392;SDS011;35268;42.642;23.308;2022-10-23T14:37:30;4.40;;;1.55;;
49392;SDS011;35268;42.642;23.308;2022-10-23T14:39:55;8.60;;;2.42;;
49392;SDS011;35268;42.642;23.308;2022-10-23T14:42:21;7.00;;;1.70;;
49392;SDS011;35268;42.642;23.308;2022-10-23T14:44:47;7.38;;;1.80;;
49392;SDS011;35268;42.642;23.308;2022-10-23T14:47:14;4.18;;;1.70;;
49392;SDS011;35268;42.642;23.308;2022-10-23T14:49:40;5.47;;;1.70;;
49392;SDS011;35268;42.642;23.308;2022-10-23T14:52:06;7.15;;;2.00;;
49392;SDS011;35268;42.642;23.308;2022-10-23T14:54:32;3.70;;;1.90;;
49392;SDS011;35268;42.642;23.308;2022-10-23T14:57:00;5.40;;;1.80;;
49392;SDS011;35268;42.642;23.308;2022-10-23T14:59:25;6.35;;;1.80;;
49392;SDS011;35268;42.642;23.308;2022-10-23T15:01:51;10.38;;;1.95;;
49392;SDS011;35268;42.642;23.308;2022-10-23T15:04:16;9.98;;;2.35;;
49392;SDS011;35268;42.642;23.308;2022-10-23T15:06:42;9.80;;;2.63;;
49392;SDS011;35268;42.642;23.308;2022-10-23T15:09:08;6.78;;;2.35;;
49392;SDS011;35268;42.642;23.308;2022-10-23T15:11:33;11.13;;;3.13;;
49392;SDS011;35268;42.642;23.308;2022-10-23T15:13:59;5.85;;;2.45;;
49392;SDS011;35268;42.642;23.308;2022-10-23T15:16:25;9.93;;;3.35;;
49392;SDS011;35268;42.642;23.308;2022-10-23T15:18:50;9.63;;;3.88;;
49392;SDS011;35268;42.642;23.308;2022-10-23T15:21:16;5.18;;;2.17;;
49392;SDS011;35268;42.642;23.308;2022-10-23T15:23:42;6.15;;;1.77;;
49392;SDS011;35268;42.642;23.308;2022-10-23T15:26:13;13.13;;;1.98;;
49392;SDS011;35268;42.642;23.308;2022-10-23T15:28:47;4.30;;;2.13;;
49392;SDS011;35268;42.642;23.308;2022-10-23T15:34:08;8.23;;;2.67;;
49392;SDS011;35268;42.642;23.308;2022-10-23T15:36:35;6.78;;;3.60;;
49392;SDS011;35268;42.642;23.308;2022-10-23T15:39:00;13.80;;;4.35;;
49392;SDS011;35268;42.642;23.308;2022-10-23T15:41:26;10.60;;;4.50;;
49392;SDS011;35268;42.642;23.308;2022-10-23T15:44:00;13.68;;;4.35;;
49392;SDS011;35268;42.642;23.308;2022-10-23T15:46:26;22.52;;;7.47;;
49392;SDS011;35268;42.642;23.308;2022-10-23T15:48:52;22.80;;;8.70;;
49392;SDS011;35268;42.642;23.308;2022-10-23T15:51:17;31.65;;;12.35;;
49392;SDS011;35268;42.642;23.308;2022-10-23T15:53:43;66.80;;;23.17;;
49392;SDS011;35268;42.642;23.308;2022-10-23T15:56:08;35.63;;;15.00;;
49392;SDS011;35268;42.642;23.308;2022-10-23T15:58:34;35.47;;;13.27;;
49392;SDS011;35268;42.642;23.308;2022-10-23T16:01:03;63.00;;;25.52;;
49392;SDS011;35268;42.642;23.308;2022-10-23T16:03:35;64.55;;;24.40;;
49392;SDS011;35268;42.642;23.308;2022-10-23T16:06:02;38.65;;;15.75;;
49392;SDS011;35268;42.642;23.308;2022-10-23T16:08:29;25.45;;;12.98;;
49392;SDS011;35268;42.642;23.308;2022-10-23T16:10:54;20.13;;;10.10;;
49392;SDS011;35268;42.642;23.308;2022-10-23T16:13:19;30.17;;;9.32;;
49392;SDS011;35268;42.642;23.308;2022-10-23T16:15:45;17.67;;;9.70;;
49392;SDS011;35268;42.642;23.308;2022-10-23T16:18:10;22.83;;;9.88;;
49392;SDS011;35268;42.642;23.308;2022-10-23T16:20:40;19.67;;;6.85;;
49392;SDS011;35268;42.642;23.308;2022-10-23T16:23:06;20.65;;;8.50;;
49392;SDS011;35268;42.642;23.308;2022-10-23T16:25:34;14.48;;;5.10;;
49392;SDS011;35268;42.642;23.308;2022-10-23T16:28:00;14.40;;;6.45;;
49392;SDS011;35268;42.642;23.308;2022-10-23T16:30:26;20.58;;;6.85;;
49392;SDS011;35268;42.642;23.308;2022-10-23T16:32:51;35.83;;;9.38;;
49392;SDS011;35268;42.642;23.308;2022-10-23T16:35:18;18.20;;;8.05;;
49392;SDS011;35268;42.642;23.308;2022-10-23T16:37:44;24.95;;;9.85;;
49392;SDS011;35268;42.642;23.308;2022-10-23T16:40:09;14.77;;;6.68;;
49392;SDS011;35268;42.642;23.308;2022-10-23T16:42:35;10.45;;;4.28;;
49392;SDS011;35268;42.642;23.308;2022-10-23T16:45:02;13.20;;;5.10;;
49392;SDS011;35268;42.642;23.308;2022-10-23T16:47:31;12.68;;;5.85;;
49392;SDS011;35268;42.642;23.308;2022-10-23T16:49:57;15.45;;;6.70;;
49392;SDS011;35268;42.642;23.308;2022-10-23T16:52:25;23.50;;;7.35;;
49392;SDS011;35268;42.642;23.308;2022-10-23T16:54:51;13.73;;;6.22;;